Time;durP1;ratioP1;P1;durP2;ratioP2;P2;SDS_P1;SDS_P2;PMS_P1;PMS_P2;Temp;Humidity;BMP_temperature;BMP_pressure;BME280_temperature;BME280_humidity;BME280_pressure;Samples;Min_cycle;Max_cycle;Signal;HPM_P1;HPM_P2
2021/09/16 00:01:23;;;;;;;27.55;13.25;;;;;;;8.48;88.52;99708.64;1640416;86;21003;-72
2021/09/16 00:03:51;;;;;;;29.80;13.88;;;;;;;8.47;88.33;99712.48;1639580;85;21014;-72
2021/09/16 00:06:18;;;;;;;35.35;13.72;;;;;;;8.45;88.32;99711.98;1645615;86;21941;-72
2021/09/16 00:08:47;;;;;;;23.42;13.15;;;;;;;8.42;88.35;99708.47;1635159;86;21012;-71
2021/09/16 00:11:15;;;;;;;26.35;13.03;;;;;;;8.40;88.42;99702.48;1637007;86;21848;-71
2021/09/16 00:13:43;;;;;;;27.55;13.93;;;;;;;8.38;88.58;99710.17;1638014;85;21133;-71
2021/09/16 00:16:11;;;;;;;29.80;13.88;;;;;;;8.37;88.58;99714.57;1633166;86;21770;-69
2021/09/16 00:18:38;;;;;;;30.48;13.45;;;;;;;8.34;88.41;99711.87;1651197;86;21050;-69
2021/09/16 00:21:07;;;;;;;29.40;13.43;;;;;;;8.32;88.37;99714.06;1647571;86;21012;-71
2021/09/16 00:23:36;;;;;;;28.85;13.08;;;;;;;8.29;88.42;99710.55;1642980;85;20903;-72
2021/09/16 00:26:03;;;;;;;25.37;12.93;;;;;;;8.26;88.51;99709.77;1644705;86;21593;-72
2021/09/16 00:28:30;;;;;;;26.52;13.78;;;;;;;8.24;88.58;99713.36;1644246;86;21090;-72
2021/09/16 00:30:57;;;;;;;27.40;13.50;;;;;;;8.23;88.55;99713.09;1655446;86;21971;-72
2021/09/16 00:33:25;;;;;;;25.62;12.93;;;;;;;8.19;88.40;99710.70;1645536;85;20915;-72
2021/09/16 00:35:52;;;;;;;31.15;13.70;;;;;;;8.16;88.46;99708.00;1640690;86;21822;-72
2021/09/16 00:38:19;;;;;;;24.92;13.10;;;;;;;8.14;88.42;99706.67;1646253;86;21075;-70
2021/09/16 00:40:47;;;;;;;23.30;12.50;;;;;;;8.11;88.43;99705.89;1649882;86;20957;-71
2021/09/16 00:43:13;;;;;;;23.87;12.35;;;;;;;8.10;88.47;99709.18;1644058;85;21079;-71
2021/09/16 00:45:40;;;;;;;24.52;12.47;;;;;;;8.10;88.55;99711.10;1639949;86;20965;-70
2021/09/16 00:48:08;;;;;;;23.57;11.75;;;;;;;8.08;88.63;99710.61;1642947;86;20956;-71
2021/09/16 00:50:37;;;;;;;27.95;11.70;;;;;;;8.06;88.73;99713.64;1638427;86;21078;-72
2021/09/16 00:53:04;;;;;;;26.90;12.73;;;;;;;8.04;88.80;99716.41;1642806;86;20952;-71
2021/09/16 00:55:31;;;;;;;26.85;12.58;;;;;;;8.02;88.90;99713.97;1642071;86;21036;-70
2021/09/16 00:58:02;;;;;;;21.97;12.03;;;;;;;8.00;89.17;99713.45;1647913;86;20985;-70
2021/09/16 01:00:29;;;;;;;24.05;11.75;;;;;;;7.99;89.25;99711.83;1645975;86;21163;-70
2021/09/16 01:02:57;;;;;;;21.45;11.12;;;;;;;7.97;89.25;99714.04;1640267;86;20892;-70
2021/09/16 01:05:24;;;;;;;21.90;10.90;;;;;;;7.94;89.06;99716.00;1649399;85;21039;-71
2021/09/16 01:07:51;;;;;;;22.67;11.45;;;;;;;7.91;89.05;99722.86;1651034;86;20932;-72
2021/09/16 01:10:19;;;;;;;29.35;11.50;;;;;;;7.89;89.08;99718.24;1644894;86;21061;-72
2021/09/16 01:12:47;;;;;;;26.37;12.07;;;;;;;7.86;88.96;99720.75;1643281;86;20907;-72
2021/09/16 01:15:15;;;;;;;23.60;11.85;;;;;;;7.84;89.09;99716.12;1641243;85;20950;-72
2021/09/16 01:17:46;;;;;;;21.68;11.30;;;;;;;7.79;89.10;99712.09;1650640;85;21074;-71
2021/09/16 01:20:14;;;;;;;20.85;10.75;;;;;;;7.76;89.33;99712.13;1635456;86;21016;-71
2021/09/16 01:22:42;;;;;;;26.33;10.78;;;;;;;7.73;89.37;99711.34;1640953;86;20963;-71
2021/09/16 01:25:10;;;;;;;17.60;10.28;;;;;;;7.72;89.40;99712.45;1653794;85;23348;-70
2021/09/16 01:27:36;;;;;;;17.35;9.78;;;;;;;7.71;89.51;99707.28;1647405;85;21531;-71
2021/09/16 01:30:06;;;;;;;22.02;10.48;;;;;;;7.70;89.58;99711.12;1651101;86;21707;-71
2021/09/16 01:32:33;;;;;;;25.12;11.00;;;;;;;7.68;89.62;99704.58;1644151;85;21000;-71
2021/09/16 01:35:00;;;;;;;21.60;11.50;;;;;;;7.66;89.47;99711.44;1637695;85;20940;-69
2021/09/16 01:37:29;;;;;;;18.75;9.80;;;;;;;7.62;89.52;99709.84;1646419;86;21451;-69
2021/09/16 01:39:56;;;;;;;18.65;10.65;;;;;;;7.61;89.61;99708.22;1612435;88;20975;-70
2021/09/16 01:42:25;;;;;;;22.70;10.93;;;;;;;7.58;89.54;99711.53;1623036;86;20976;-70
2021/09/16 01:44:52;;;;;;;20.97;9.60;;;;;;;7.55;89.63;99707.47;1643151;86;20984;-70
2021/09/16 01:47:18;;;;;;;28.00;10.05;;;;;;;7.55;89.54;99709.38;1641074;86;21078;-69
2021/09/16 01:49:45;;;;;;;22.10;9.43;;;;;;;7.52;89.66;99708.59;1631941;86;21084;-69
2021/09/16 01:52:11;;;;;;;25.50;9.43;;;;;;;7.50;89.75;99704.83;1641364;85;21243;-69
2021/09/16 01:54:38;;;;;;;22.27;9.28;;;;;;;7.50;89.76;99699.91;1649015;86;21043;-70
2021/09/16 01:57:05;;;;;;;20.68;9.95;;;;;;;7.46;89.65;99697.50;1644198;85;22199;-69
2021/09/16 01:59:31;;;;;;;18.62;9.90;;;;;;;7.42;89.66;99704.66;1602738;87;21180;-69
2021/09/16 02:01:58;;;;;;;26.75;10.53;;;;;;;7.39;89.82;99704.68;1601167;88;21780;-68
2021/09/16 02:04:24;;;;;;;21.20;9.75;;;;;;;7.36;89.87;99699.80;1608480;88;21153;-68
2021/09/16 02:06:53;;;;;;;22.87;10.53;;;;;;;7.35;90.01;99702.27;1613940;88;21598;-68
2021/09/16 02:09:21;;;;;;;19.07;9.90;;;;;;;7.35;90.01;99705.00;1615055;88;21538;-68
2021/09/16 02:11:47;;;;;;;19.07;10.13;;;;;;;7.32;89.94;99711.59;1611679;87;21016;-68
2021/09/16 02:14:16;;;;;;;19.77;9.63;;;;;;;7.29;90.16;99700.14;1595210;88;20976;-68
2021/09/16 02:16:42;;;;;;;21.45;9.73;;;;;;;7.29;90.24;99701.52;1596423;89;21017;-68
2021/09/16 02:19:10;;;;;;;20.50;9.65;;;;;;;7.26;90.08;99696.63;1602546;89;20919;-72
2021/09/16 02:21:38;;;;;;;15.70;8.83;;;;;;;7.24;90.16;99702.93;1602639;88;20975;-72
2021/09/16 02:24:06;;;;;;;22.07;10.25;;;;;;;7.23;90.16;99705.40;1602677;88;20982;-73
2021/09/16 02:26:32;;;;;;;23.07;8.90;;;;;;;7.21;90.07;99708.16;1602618;89;21127;-73
2021/09/16 02:28:59;;;;;;;22.98;9.98;;;;;;;7.20;90.04;99704.61;1602502;89;20919;-74
2021/09/16 02:31:25;;;;;;;21.62;9.43;;;;;;;7.18;90.04;99700.55;1602806;89;20990;-74
2021/09/16 02:33:52;;;;;;;19.10;9.18;;;;;;;7.17;89.96;99701.09;1645146;85;21518;-73
2021/09/16 02:36:21;;;;;;;27.95;10.13;;;;;;;7.16;89.92;99702.75;1655763;85;20905;-73
2021/09/16 02:38:49;;;;;;;26.70;10.75;;;;;;;7.14;89.95;99700.30;1611101;87;21157;-74
2021/09/16 02:41:15;;;;;;;25.95;10.53;;;;;;;7.13;89.97;99697.87;1606220;87;21029;-74
2021/09/16 02:43:42;;;;;;;22.87;9.23;;;;;;;7.10;89.96;99703.91;1648282;85;21016;-72
2021/09/16 02:46:11;;;;;;;19.65;10.28;;;;;;;7.08;90.07;99705.55;1651897;87;21488;-73
2021/09/16 02:48:39;;;;;;;17.77;10.08;;;;;;;7.05;90.07;99703.41;1637501;86;21553;-73
2021/09/16 02:51:06;;;;;;;28.50;10.53;;;;;;;7.03;90.21;99704.23;1613280;88;21140;-72
2021/09/16 02:53:33;;;;;;;24.82;10.38;;;;;;;7.02;90.31;99706.70;1624236;87;21055;-73
2021/09/16 02:56:02;;;;;;;23.27;10.43;;;;;;;7.00;90.53;99707.55;1604408;89;20919;-73
2021/09/16 02:58:30;;;;;;;22.62;9.93;;;;;;;7.00;90.65;99702.64;1602676;89;21514;-71
2021/09/16 03:00:59;;;;;;;59.75;12.53;;;;;;;6.98;90.64;99704.30;1602605;89;20927;-71
2021/09/16 03:03:26;;;;;;;79.72;13.38;;;;;;;6.95;90.61;99699.41;1602497;88;21169;-71
2021/09/16 03:05:54;;;;;;;48.52;10.88;;;;;;;6.93;90.66;99699.70;1602887;89;21013;-72
2021/09/16 03:08:20;;;;;;;49.38;11.88;;;;;;;6.94;90.79;99708.70;1603876;88;20963;-71
2021/09/16 03:10:48;;;;;;;33.60;11.38;;;;;;;6.93;90.87;99705.16;1604135;89;21481;-70
2021/09/16 03:13:15;;;;;;;38.48;12.13;;;;;;;6.92;90.95;99701.38;1603937;88;20931;-70
2021/09/16 03:15:41;;;;;;;34.33;12.58;;;;;;;6.90;90.96;99704.95;1603919;89;23331;-70
2021/09/16 03:18:09;;;;;;;44.25;12.63;;;;;;;6.89;91.01;99707.41;1603960;89;21498;-70
2021/09/16 03:20:36;;;;;;;26.68;10.95;;;;;;;6.87;91.04;99703.60;1603884;89;21030;-70
2021/09/16 03:23:02;;;;;;;34.60;11.97;;;;;;;6.85;90.95;99706.36;1603911;88;20930;-71
2021/09/16 03:25:29;;;;;;;31.75;11.43;;;;;;;6.82;90.80;99704.20;1604028;89;20966;-71
2021/09/16 03:27:57;;;;;;;40.38;11.70;;;;;;;6.79;90.87;99700.68;1603980;89;20887;-71
2021/09/16 03:30:24;;;;;;;48.55;12.35;;;;;;;6.78;90.78;99705.33;1604053;89;21027;-71
2021/09/16 03:32:51;;;;;;;41.45;13.43;;;;;;;6.76;90.78;99697.98;1603896;89;20923;-71
2021/09/16 03:35:18;;;;;;;35.98;13.32;;;;;;;6.76;90.78;99701.25;1604020;89;21029;-71
2021/09/16 03:37:46;;;;;;;31.27;13.38;;;;;;;6.74;90.87;99702.91;1603729;88;21628;-71
2021/09/16 03:40:13;;;;;;;27.20;12.45;;;;;;;6.73;91.10;99700.46;1603899;89;21116;-71
2021/09/16 03:42:40;;;;;;;32.15;13.30;;;;;;;6.73;91.15;99704.55;1603937;89;20951;-73
2021/09/16 03:45:09;;;;;;;38.83;12.73;;;;;;;6.71;91.06;99699.94;1603917;89;21015;-74
2021/09/16 03:47:35;;;;;;;28.77;12.90;;;;;;;6.68;91.37;99698.59;1603952;89;20977;-72
2021/09/16 03:50:02;;;;;;;29.75;11.78;;;;;;;6.68;91.42;99704.59;1603900;89;20918;-73
2021/09/16 03:52:30;;;;;;;25.57;11.65;;;;;;;6.63;91.72;99706.27;1603985;89;20939;-72
2021/09/16 03:54:58;;;;;;;31.97;12.07;;;;;;;6.61;91.80;99703.02;1603922;89;20962;-72
2021/09/16 03:57:25;;;;;;;26.80;12.03;;;;;;;6.59;91.94;99707.94;1604786;89;20918;-71
2021/09/16 03:59:51;;;;;;;30.70;11.65;;;;;;;6.61;92.08;99707.10;1603916;89;21549;-71
2021/09/16 04:02:18;;;;;;;24.60;11.43;;;;;;;6.60;91.95;99706.84;1604022;88;21038;-72
2021/09/16 04:04:45;;;;;;;31.75;11.80;;;;;;;6.58;91.93;99707.67;1603853;89;21169;-72
2021/09/16 04:07:11;;;;;;;29.92;12.13;;;;;;;6.60;92.10;99709.56;1604102;89;20895;-71
2021/09/16 04:09:38;;;;;;;21.05;11.40;;;;;;;6.62;92.13;99714.19;1605645;89;20914;-72
2021/09/16 04:12:06;;;;;;;29.52;11.45;;;;;;;6.67;92.22;99715.25;1603965;89;21025;-74
2021/09/16 04:14:32;;;;;;;27.20;10.63;;;;;;;6.70;92.23;99717.41;1604178;89;21006;-72
2021/09/16 04:16:59;;;;;;;23.27;10.85;;;;;;;6.74;92.55;99721.19;1603691;87;20994;-69
2021/09/16 04:19:26;;;;;;;25.82;11.48;;;;;;;6.79;92.69;99716.50;1601790;89;21093;-72
2021/09/16 04:21:54;;;;;;;29.42;12.30;;;;;;;6.84;92.64;99721.91;1603897;89;21033;-70
2021/09/16 04:24:20;;;;;;;27.58;12.60;;;;;;;6.89;92.65;99721.88;1604471;89;21026;-68
2021/09/16 04:26:49;;;;;;;25.10;10.90;;;;;;;6.96;92.81;99722.88;1605604;89;20903;-69
2021/09/16 04:29:15;;;;;;;28.75;12.80;;;;;;;7.04;92.99;99720.06;1605575;89;21075;-71
2021/09/16 04:31:42;;;;;;;24.95;11.90;;;;;;;7.12;93.34;99719.44;1604702;87;20963;-71
2021/09/16 04:34:10;;;;;;;25.02;11.35;;;;;;;7.20;94.04;99722.36;1602306;89;21061;-71
2021/09/16 04:36:36;;;;;;;25.15;11.65;;;;;;;7.32;94.35;99723.33;1602493;89;21188;-70
2021/09/16 04:39:04;;;;;;;23.47;11.95;;;;;;;7.42;94.47;99729.23;1603805;89;21052;-71
2021/09/16 04:41:32;;;;;;;23.85;10.85;;;;;;;7.52;94.51;99724.99;1603849;89;21165;-71
2021/09/16 04:43:59;;;;;;;32.60;11.83;;;;;;;7.62;94.62;99718.86;1603964;89;21041;-70
2021/09/16 04:46:25;;;;;;;32.80;11.70;;;;;;;7.76;94.86;99723.61;1603722;89;21098;-71
2021/09/16 04:48:52;;;;;;;25.90;11.40;;;;;;;7.88;94.95;99725.38;1603850;89;20997;-71
2021/09/16 04:51:19;;;;;;;24.92;11.48;;;;;;;8.01;95.29;99721.10;1603845;89;21508;-70
2021/09/16 04:53:45;;;;;;;40.73;13.48;;;;;;;8.16;95.48;99720.30;1604046;89;21122;-70
2021/09/16 04:56:12;;;;;;;33.75;14.45;;;;;;;8.30;95.94;99717.64;1603438;89;20982;-70
2021/09/16 04:58:41;;;;;;;38.33;14.87;;;;;;;8.51;97.19;99718.18;1603826;89;20950;-71
2021/09/16 05:01:07;;;;;;;29.32;12.18;;;;;;;8.73;97.57;99718.89;1603853;89;21049;-70
2021/09/16 05:03:35;;;;;;;30.77;13.15;;;;;;;8.92;97.72;99717.73;1603908;89;21005;-70
2021/09/16 05:06:03;;;;;;;31.60;13.05;;;;;;;9.12;97.82;99714.39;1603882;89;21220;-72
2021/09/16 05:08:31;;;;;;;32.80;12.63;;;;;;;9.31;97.90;99709.61;1603776;89;20991;-72
2021/09/16 05:11:00;;;;;;;25.35;11.73;;;;;;;9.50;97.81;99710.34;1603865;89;20950;-72
2021/09/16 05:13:28;;;;;;;26.17;11.80;;;;;;;9.68;97.88;99705.05;1603120;89;21528;-72
2021/09/16 05:15:56;;;;;;;57.90;13.22;;;;;;;9.88;97.72;99704.04;1602729;89;21018;-72
2021/09/16 05:18:23;;;;;;;25.90;12.25;;;;;;;10.07;97.66;99699.80;1602419;89;21076;-72
2021/09/16 05:20:49;;;;;;;26.50;11.18;;;;;;;10.25;97.62;99696.12;1602517;89;21023;-71
2021/09/16 05:23:16;;;;;;;24.50;12.10;;;;;;;10.43;97.24;99697.05;1602617;89;20930;-71
2021/09/16 05:25:42;;;;;;;27.32;11.88;;;;;;;10.62;96.75;99697.42;1602902;89;20970;-71
2021/09/16 05:28:10;;;;;;;29.20;12.15;;;;;;;10.80;96.19;99689.56;1602733;89;21053;-70
2021/09/16 05:30:38;;;;;;;27.05;12.18;;;;;;;10.98;95.67;99689.88;1602609;89;20919;-70
2021/09/16 05:33:12;;;;;;;36.98;14.80;;;;;;;11.16;95.38;99688.84;1602547;89;21014;-71
2021/09/16 05:35:40;;;;;;;32.73;13.60;;;;;;;11.35;94.91;99689.18;1601116;88;20982;-72
2021/09/16 05:38:07;;;;;;;26.52;13.13;;;;;;;11.53;93.99;99688.93;1602589;89;20978;-72
2021/09/16 05:40:34;;;;;;;20.72;11.57;;;;;;;11.72;93.48;99688.63;1602676;89;21073;-71
2021/09/16 05:43:02;;;;;;;35.88;11.63;;;;;;;11.90;92.74;99686.20;1605266;89;21179;-72
2021/09/16 05:45:28;;;;;;;59.50;14.90;;;;;;;12.08;91.57;99686.23;1602579;89;20958;-71
2021/09/16 05:47:54;;;;;;;83.95;16.48;;;;;;;12.27;89.78;99694.14;1602715;89;21545;-72
2021/09/16 05:50:21;;;;;;;114.67;21.90;;;;;;;12.45;89.19;99713.10;1602648;89;20923;-70
2021/09/16 05:52:48;;;;;;;46.73;14.38;;;;;;;12.66;89.86;99716.58;1602841;89;20967;-70
2021/09/16 05:55:15;;;;;;;37.95;11.03;;;;;;;12.84;89.41;99712.64;1602349;89;22483;-70
2021/09/16 05:57:42;;;;;;;23.73;7.97;;;;;;;13.02;89.09;99711.48;1602579;89;21002;-70
2021/09/16 06:00:11;;;;;;;16.62;7.92;;;;;;;13.18;88.28;99716.73;1602624;89;20927;-70
2021/09/16 06:02:37;;;;;;;20.72;8.58;;;;;;;13.34;87.23;99711.47;1602681;89;21542;-70
2021/09/16 06:05:05;;;;;;;22.27;9.60;;;;;;;13.49;85.82;99718.39;1602793;89;21086;-70
2021/09/16 06:07:33;;;;;;;16.40;8.10;;;;;;;13.63;85.26;99717.60;1602612;89;21185;-70
2021/09/16 06:09:59;;;;;;;14.65;7.92;;;;;;;13.78;83.85;99712.91;1602658;89;21005;-71
2021/09/16 06:12:30;;;;;;;16.20;8.50;;;;;;;13.94;82.59;99716.44;1601635;89;21021;-71
2021/09/16 06:14:56;;;;;;;14.78;8.28;;;;;;;14.06;80.91;99715.15;1602836;89;21538;-71
2021/09/16 06:17:22;;;;;;;20.60;8.10;;;;;;;14.15;78.16;99707.62;1602786;89;21491;-71
2021/09/16 06:19:50;;;;;;;21.00;8.65;;;;;;;14.26;78.79;99713.56;1602693;88;20955;-71
2021/09/16 06:22:18;;;;;;;18.80;9.50;;;;;;;14.39;79.16;99722.16;1602537;89;21031;-71
2021/09/16 06:24:44;;;;;;;16.15;8.40;;;;;;;14.57;78.60;99728.34;1602711;89;20935;-71
2021/09/16 06:27:11;;;;;;;23.10;8.88;;;;;;;14.73;77.52;99734.30;1602695;89;21038;-71
2021/09/16 06:29:38;;;;;;;20.97;8.25;;;;;;;14.89;76.96;99728.95;1602840;89;21487;-71
2021/09/16 06:32:06;;;;;;;15.88;6.85;;;;;;;15.03;76.28;99733.59;1602670;89;21078;-71
2021/09/16 06:34:36;;;;;;;14.98;7.08;;;;;;;15.22;74.99;99740.55;1606720;89;21073;-72
2021/09/16 06:37:04;;;;;;;13.08;6.28;;;;;;;15.37;72.88;99737.14;1604038;89;20994;-71
2021/09/16 06:39:31;;;;;;;13.93;6.05;;;;;;;15.52;72.30;99732.33;1645229;86;21458;-71
2021/09/16 06:41:58;;;;;;;12.82;6.30;;;;;;;15.66;70.80;99730.61;1661817;85;21528;-71
2021/09/16 06:44:25;;;;;;;14.58;5.90;;;;;;;15.83;69.98;99739.50;1660644;86;22330;-71
2021/09/16 06:46:54;;;;;;;12.47;6.50;;;;;;;15.96;68.32;99738.92;1661637;85;21008;-71
2021/09/16 06:49:20;;;;;;;14.43;6.25;;;;;;;16.09;66.75;99739.14;1660609;85;20903;-70
2021/09/16 06:51:48;;;;;;;9.85;4.50;;;;;;;16.25;66.69;99741.98;1658135;86;21009;-71
2021/09/16 06:54:15;;;;;;;16.48;4.80;;;;;;;16.43;60.66;99739.76;1659005;85;21087;-71
2021/09/16 06:56:42;;;;;;;13.22;4.70;;;;;;;16.61;63.00;99741.67;1645307;86;21907;-71
2021/09/16 06:59:09;;;;;;;11.57;5.00;;;;;;;16.81;61.81;99744.84;1659580;86;20941;-70
2021/09/16 07:01:36;;;;;;;11.18;4.78;;;;;;;17.03;62.22;99738.75;1657863;86;21631;-72
2021/09/16 07:04:03;;;;;;;10.50;4.53;;;;;;;17.27;60.36;99740.59;1653669;86;21016;-71
2021/09/16 07:06:30;;;;;;;8.90;4.33;;;;;;;17.49;59.36;99743.32;1654478;86;20921;-71
2021/09/16 07:08:58;;;;;;;8.43;3.62;;;;;;;17.66;58.80;99749.94;1655713;86;21477;-70
2021/09/16 07:11:26;;;;;;;6.80;3.40;;;;;;;17.85;56.83;99748.42;1656745;86;21198;-71
2021/09/16 07:13:54;;;;;;;8.23;3.75;;;;;;;17.97;53.99;99746.91;1654489;86;21003;-71
2021/09/16 07:16:20;;;;;;;8.63;3.35;;;;;;;18.10;54.25;99755.36;1657288;85;21001;-71
2021/09/16 07:18:49;;;;;;;5.42;2.77;;;;;;;18.32;54.96;99756.08;1663446;85;21460;-71
2021/09/16 07:21:15;;;;;;;8.13;3.20;;;;;;;18.62;52.75;99754.96;1657110;85;21147;-73
2021/09/16 07:23:42;;;;;;;17.15;4.28;;;;;;;18.86;52.30;99749.70;1640334;85;21013;-70
2021/09/16 07:26:10;;;;;;;13.68;4.37;;;;;;;19.30;50.83;99749.34;1649519;86;20922;-70
2021/09/16 07:28:38;;;;;;;19.48;10.28;;;;;;;19.86;50.06;99745.97;1652088;85;21507;-72
2021/09/16 07:31:06;;;;;;;13.70;5.78;;;;;;;20.43;46.86;99752.64;1656595;86;21075;-70
2021/09/16 07:33:33;;;;;;;5.95;3.10;;;;;;;20.79;46.11;99751.72;1646539;86;21518;-71
2021/09/16 07:36:00;;;;;;;4.78;2.55;;;;;;;21.18;44.62;99747.17;1643831;87;20999;-71
2021/09/16 07:38:26;;;;;;;3.33;2.22;;;;;;;21.43;41.34;99747.66;1644820;87;21028;-72
2021/09/16 07:40:53;;;;;;;7.20;2.85;;;;;;;21.53;41.70;99744.76;1644989;86;21047;-68
2021/09/16 07:43:20;;;;;;;8.15;2.95;;;;;;;21.65;41.83;99745.07;1644893;87;20944;-69
2021/09/16 07:45:47;;;;;;;7.50;2.98;;;;;;;21.84;41.72;99746.83;1644996;87;21978;-68
2021/09/16 07:48:13;;;;;;;4.78;2.02;;;;;;;22.06;41.61;99743.02;1644639;87;20991;-68
2021/09/16 07:50:40;;;;;;;4.80;2.27;;;;;;;22.34;40.97;99751.61;1644971;87;20964;-71
2021/09/16 07:53:09;;;;;;;4.42;2.35;;;;;;;22.59;40.41;99748.94;1644898;87;21044;-67
2021/09/16 07:55:36;;;;;;;5.12;2.10;;;;;;;22.84;39.29;99743.49;1645016;87;21003;-72
2021/09/16 07:58:05;;;;;;;5.10;2.70;;;;;;;23.05;39.10;99744.98;1644813;87;21144;-72
2021/09/16 08:00:32;;;;;;;5.78;2.45;;;;;;;23.13;38.98;99751.38;1645091;87;20963;-77
2021/09/16 08:02:59;;;;;;;6.72;2.62;;;;;;;23.24;38.50;99745.80;1645117;87;21027;-77
2021/09/16 08:05:25;;;;;;;6.83;2.47;;;;;;;23.33;38.35;99742.83;1645266;87;21007;-74
2021/09/16 08:07:52;;;;;;;17.60;7.78;;;;;;;23.48;37.53;99746.45;1644937;87;20872;-75
2021/09/16 08:10:20;;;;;;;10.75;5.78;;;;;;;23.64;37.61;99744.11;1644948;87;21158;-68
2021/09/16 08:12:47;;;;;;;9.50;3.85;;;;;;;23.87;36.17;99738.09;1644713;87;21019;-69
2021/09/16 08:15:15;;;;;;;20.92;5.25;;;;;;;23.89;35.10;99734.88;1645085;87;21039;-71
2021/09/16 08:17:42;;;;;;;8.58;3.20;;;;;;;24.01;34.50;99736.69;1644981;87;20914;-71
2021/09/16 08:20:10;;;;;;;5.42;2.20;;;;;;;24.15;35.25;99735.07;1645138;87;21122;-69
2021/09/16 08:22:37;;;;;;;5.58;2.35;;;;;;;24.17;32.81;99733.47;1644937;87;21102;-69
2021/09/16 08:25:07;;;;;;;5.95;2.55;;;;;;;23.91;34.28;99730.48;1644699;87;20956;-69
2021/09/16 08:27:35;;;;;;;7.62;2.45;;;;;;;23.94;34.16;99731.68;1645008;86;21567;-69
2021/09/16 08:30:04;;;;;;;3.37;2.27;;;;;;;23.83;35.08;99723.88;1645046;86;20987;-69
2021/09/16 08:32:31;;;;;;;4.92;2.17;;;;;;;23.63;33.44;99731.91;1644895;86;20920;-70
2021/09/16 08:34:59;;;;;;;5.22;2.47;;;;;;;23.40;33.70;99730.84;1645053;87;21072;-71
2021/09/16 08:37:25;;;;;;;6.10;2.08;;;;;;;23.42;33.92;99728.44;1645467;85;20915;-71
2021/09/16 08:39:54;;;;;;;8.08;2.67;;;;;;;23.64;34.67;99730.70;1657602;85;21573;-70
2021/09/16 08:42:25;;;;;;;6.85;2.10;;;;;;;23.91;32.80;99726.87;1654389;86;20915;-73
2021/09/16 08:44:54;;;;;;;15.28;2.65;;;;;;;24.09;33.38;99720.66;1654469;86;20907;-75
2021/09/16 08:47:21;;;;;;;6.17;2.37;;;;;;;24.43;33.14;99722.40;1654187;85;21154;-73
2021/09/16 08:49:48;;;;;;;4.30;1.80;;;;;;;24.67;32.13;99720.13;1652538;86;21081;-69
2021/09/16 08:52:16;;;;;;;7.08;2.00;;;;;;;24.93;32.21;99727.81;1607632;88;21012;-69
2021/09/16 08:54:43;;;;;;;4.05;2.33;;;;;;;25.19;30.51;99720.89;1612311;88;21065;-69
2021/09/16 08:57:14;;;;;;;5.47;2.40;;;;;;;25.26;31.54;99713.83;1622943;87;20973;-71
2021/09/16 08:59:43;;;;;;;3.60;2.05;;;;;;;25.29;30.78;99715.21;1635948;85;21567;-71
2021/09/16 09:02:09;;;;;;;6.10;2.05;;;;;;;25.27;29.71;99718.23;1639737;86;21700;-70
2021/09/16 09:04:37;;;;;;;4.58;2.45;;;;;;;25.26;29.93;99712.42;1632928;87;21024;-68
2021/09/16 09:07:05;;;;;;;6.00;1.92;;;;;;;25.34;30.53;99716.18;1660526;86;21034;-69
2021/09/16 09:09:32;;;;;;;4.78;1.82;;;;;;;25.52;29.91;99709.00;1651964;85;20935;-69
2021/09/16 09:12:11;;;;;;;6.05;2.25;;;;;;;25.73;28.76;99710.88;1635809;85;21114;-69
2021/09/16 09:14:44;;;;;;;14.38;2.10;;;;;;;25.80;29.47;99712.23;1655741;86;21054;-69
2021/09/16 09:17:27;;;;;;;23.90;3.42;;;;;;;25.84;28.71;99713.61;1653351;86;20967;-69
2021/09/16 09:19:58;;;;;;;2.60;1.45;;;;;;;25.82;28.93;99713.23;1639474;86;20995;-69
2021/09/16 09:22:29;;;;;;;7.35;1.92;;;;;;;25.91;27.97;99712.14;1640809;85;21022;-70
2021/09/16 09:25:11;;;;;;;3.93;1.47;;;;;;;25.96;27.99;99711.70;1654523;86;21139;-69
2021/09/16 09:27:41;;;;;;;5.50;1.45;;;;;;;26.14;27.85;99707.28;1653464;86;20948;-71
2021/09/16 09:30:20;;;;;;;4.33;1.67;;;;;;;26.36;29.34;99717.13;1650157;86;20963;-70
2021/09/16 09:32:59;;;;;;;4.03;1.65;;;;;;;26.71;29.04;99716.52;1654321;86;20987;-69
2021/09/16 09:35:39;;;;;;;4.87;1.75;;;;;;;26.91;26.53;99721.70;1654572;86;20999;-70
2021/09/16 09:38:27;;;;;;;3.55;1.30;;;;;;;26.85;26.36;99719.95;1654429;86;21078;-72
2021/09/16 09:40:58;;;;;;;4.22;1.72;;;;;;;26.82;26.17;99716.58;1654294;86;20944;-69
2021/09/16 09:43:35;;;;;;;7.12;1.90;;;;;;;26.80;26.88;99713.98;1656158;85;21073;-70
2021/09/16 09:46:12;;;;;;;3.70;1.70;;;;;;;26.87;26.31;99713.29;1649508;85;21072;-71
2021/09/16 09:48:46;;;;;;;3.90;1.60;;;;;;;26.74;26.48;99709.44;1656891;85;21059;-69
2021/09/16 09:51:14;;;;;;;2.83;1.17;;;;;;;26.74;26.48;99708.02;1647103;86;21254;-69
2021/09/16 09:53:44;;;;;;;5.08;1.57;;;;;;;26.73;26.94;99702.20;1657391;85;20947;-70
2021/09/16 09:56:20;;;;;;;4.53;1.87;;;;;;;26.79;26.55;99696.30;1656868;86;20906;-70
2021/09/16 09:58:47;;;;;;;2.20;1.25;;;;;;;26.75;27.63;99695.54;1652924;86;21584;-71
2021/09/16 10:01:33;;;;;;;1.90;1.00;;;;;;;26.87;26.23;99696.39;1653025;86;21022;-71
2021/09/16 10:04:25;;;;;;;2.50;1.20;;;;;;;26.80;25.88;99694.28;1619924;87;22350;-71
2021/09/16 10:06:51;;;;;;;1.72;1.12;;;;;;;26.42;26.85;99687.92;1645697;85;21027;-70
2021/09/16 10:09:19;;;;;;;1.75;1.32;;;;;;;26.36;27.49;99693.22;1648945;86;21017;-71
2021/09/16 10:11:48;;;;;;;6.12;1.75;;;;;;;26.40;26.57;99693.97;1644521;85;20979;-71
2021/09/16 10:14:16;;;;;;;2.42;1.40;;;;;;;26.35;27.22;99693.02;1649840;85;21530;-70
2021/09/16 10:16:43;;;;;;;3.30;1.55;;;;;;;26.56;28.10;99690.58;1643046;86;21171;-70
2021/09/16 10:19:14;;;;;;;2.52;1.20;;;;;;;26.86;25.99;99697.61;1634522;86;20948;-69
2021/09/16 10:21:40;;;;;;;3.20;1.60;;;;;;;26.99;26.13;99689.43;1636246;86;20920;-71
2021/09/16 10:24:08;;;;;;;1.42;1.07;;;;;;;27.02;26.39;99687.17;1645943;86;21523;-70
2021/09/16 10:26:40;;;;;;;4.67;1.62;;;;;;;27.01;25.60;99688.39;1652674;86;20967;-71
2021/09/16 10:29:32;;;;;;;6.25;1.47;;;;;;;27.10;25.62;99687.87;1640620;86;21522;-70
2021/09/16 10:32:10;;;;;;;3.35;1.82;;;;;;;26.91;25.73;99684.47;1651763;86;20955;-70
2021/09/16 10:34:42;;;;;;;4.40;1.70;;;;;;;26.82;26.88;99683.39;1650453;86;20935;-71
2021/09/16 10:37:12;;;;;;;6.58;2.25;;;;;;;26.79;25.67;99690.66;1642167;86;21049;-70
2021/09/16 10:39:40;;;;;;;5.47;1.90;;;;;;;26.61;26.47;99685.86;1647229;86;21073;-71
2021/09/16 10:42:09;;;;;;;2.65;1.80;;;;;;;26.50;26.29;99686.02;1648851;86;21882;-68
2021/09/16 10:44:38;;;;;;;4.72;1.65;;;;;;;26.44;26.53;99675.64;1638229;86;21213;-71
2021/09/16 10:47:19;;;;;;;2.72;1.37;;;;;;;26.64;26.85;99677.98;1659748;85;21038;-71
2021/09/16 10:49:50;;;;;;;4.22;2.70;;;;;;;26.86;25.97;99678.51;1649425;85;20989;-72
2021/09/16 10:52:22;;;;;;;6.53;2.12;;;;;;;27.00;27.53;99674.73;1661180;85;20998;-72
2021/09/16 10:54:57;;;;;;;4.90;2.17;;;;;;;26.70;25.85;99669.25;1643553;84;21805;-72
2021/09/16 10:57:31;;;;;;;2.47;1.70;;;;;;;26.33;27.35;99676.37;1660463;85;21901;-71
2021/09/16 11:00:08;;;;;;;3.50;1.80;;;;;;;26.45;26.85;99673.81;1635300;86;20992;-71
2021/09/16 11:02:47;;;;;;;4.55;2.58;;;;;;;26.59;26.95;99674.22;1617108;88;21590;-70
2021/09/16 11:05:21;;;;;;;5.87;1.95;;;;;;;26.77;27.33;99673.39;1622920;86;21565;-71
2021/09/16 11:07:54;;;;;;;4.25;1.77;;;;;;;26.96;26.82;99672.77;1612440;87;21245;-70
2021/09/16 11:10:30;;;;;;;2.65;1.80;;;;;;;27.14;27.16;99664.67;1642578;85;20900;-71
2021/09/16 11:13:04;;;;;;;2.70;1.60;;;;;;;27.15;25.84;99670.49;1644597;86;20996;-71
2021/09/16 11:15:37;;;;;;;2.30;1.47;;;;;;;27.12;26.80;99664.30;1612483;86;21130;-71
2021/09/16 11:18:16;;;;;;;2.77;1.72;;;;;;;27.29;26.43;99664.61;1654935;86;21066;-70
2021/09/16 11:20:45;;;;;;;5.33;2.30;;;;;;;27.43;26.51;99655.14;1605792;86;20992;-72
2021/09/16 11:23:15;;;;;;;4.22;1.70;;;;;;;27.53;25.82;99649.33;1623885;86;21019;-71
2021/09/16 11:25:48;;;;;;;5.75;1.80;;;;;;;27.58;25.98;99650.25;1648455;86;20953;-70
2021/09/16 11:28:16;;;;;;;5.10;2.42;;;;;;;27.42;25.16;99648.70;1651127;86;21074;-71
2021/09/16 11:30:44;;;;;;;2.70;1.67;;;;;;;27.26;25.79;99649.97;1652158;86;21050;-70
2021/09/16 11:33:17;;;;;;;6.25;1.92;;;;;;;27.35;25.20;99645.20;1632006;85;21154;-70
2021/09/16 11:35:44;;;;;;;5.45;2.45;;;;;;;27.42;25.58;99633.20;1653811;85;20975;-70